createdAt,value
2019-03-12T00:00:50.067Z,2.90
2019-03-12T00:10:51.377Z,2.50
2019-03-12T00:20:52.678Z,2.30
2019-03-12T00:30:53.959Z,2.20
2019-03-12T00:40:55.258Z,2.00
2019-03-12T00:50:56.545Z,1.90
2019-03-12T01:00:57.836Z,1.70
2019-03-12T01:10:59.207Z,1.10
2019-03-12T01:21:00.601Z,1.00
2019-03-12T01:31:02.126Z,1.00
2019-03-12T01:41:03.413Z,0.90
2019-03-12T01:51:04.719Z,0.80
2019-03-12T02:01:06.005Z,0.70
2019-03-12T02:11:07.293Z,0.70
2019-03-12T02:21:08.621Z,0.60
2019-03-12T02:31:09.918Z,0.40
2019-03-12T02:41:11.272Z,0.10
2019-03-12T02:51:14.311Z,0.00
2019-03-12T03:01:15.592Z,0.00
2019-03-12T03:11:16.939Z,-0.20
2019-03-12T03:21:18.198Z,-0.30
2019-03-12T15:31:09.541Z,9.30
2019-03-12T15:41:10.818Z,9.40
2019-03-12T15:51:17.368Z,9.30
2019-03-12T16:01:21.560Z,8.80
2019-03-12T16:11:22.945Z,8.80
2019-03-12T16:21:24.985Z,8.50
2019-03-12T16:31:27.382Z,8.50
2019-03-12T16:41:29.695Z,8.00
2019-03-12T16:51:31.848Z,6.90
2019-03-12T17:01:34.230Z,6.80
2019-03-12T17:11:36.286Z,5.80
2019-03-12T17:21:37.710Z,5.70
2019-03-12T17:31:40.932Z,5.10
2019-03-12T17:41:42.213Z,5.00
2019-03-12T17:51:43.493Z,4.90
2019-03-12T18:01:46.823Z,4.60
2019-03-12T18:22:01.414Z,4.00
2019-03-12T18:32:03.475Z,3.60
2019-03-12T18:42:04.766Z,3.50
2019-03-12T18:52:06.114Z,3.50
2019-03-12T19:02:08.170Z,2.90
2019-03-12T19:12:09.554Z,2.80
2019-03-12T19:22:15.109Z,2.80
2019-03-12T19:32:16.393Z,2.40
2019-03-12T19:42:17.669Z,2.30
2019-03-12T19:52:18.953Z,2.30
2019-03-12T20:02:23.805Z,2.20
2019-03-12T20:12:25.138Z,2.10
2019-03-12T20:22:26.411Z,2.00
2019-03-12T20:32:27.792Z,2.20
2019-03-12T20:42:29.188Z,1.70
2019-03-12T20:52:31.332Z,1.60
2019-03-12T21:02:32.620Z,1.60
2019-03-12T21:12:33.914Z,1.60
2019-03-12T21:22:36.369Z,1.60
2019-03-12T21:32:37.659Z,1.50
2019-03-12T21:42:38.961Z,1.40
2019-03-12T21:52:40.229Z,1.30
2019-03-12T22:02:41.510Z,1.00
2019-03-12T22:12:42.781Z,0.80
2019-03-12T22:22:44.033Z,0.80
2019-03-12T22:32:45.371Z,0.70
2019-03-12T22:42:46.678Z,0.80
2019-03-12T22:52:47.958Z,0.80
2019-03-12T23:02:49.252Z,0.40
2019-03-12T23:12:50.558Z,0.40
2019-03-12T23:22:52.545Z,0.20
2019-03-12T23:32:53.229Z,0.40
2019-03-12T23:42:54.504Z,0.70
2019-03-12T23:52:55.808Z,0.60
